This is the latest recevied weather packets stored in our database for station/object K6QM-1. If no packets are shown the sender has not sent any weather packets the latest 10 day(s).
| Time | Temp. | Humidity | Pressure | Rain* | Wind** | Luminosity | Snow |
|---|---|---|---|---|---|---|---|
| 1778043363 | 17.22° C | 57% | 1019.5 hPa | - | - | - | - |
| 1778042462 | 17.78° C | 57% | 1019.4 hPa | - | - | - | - |
| 1778041562 | 17.78° C | 57% | 1019.3 hPa | - | - | - | - |
| 1778040662 | 17.78° C | 56% | 1019 hPa | - | - | - | - |
| 1778039762 | 17.78° C | 56% | 1018.8 hPa | - | - | - | - |
| 1778038862 | 17.22° C | 57% | 1018.5 hPa | - | - | - | - |
| 1778037962 | 17.78° C | 55% | 1018.3 hPa | - | - | - | - |
| 1778037061 | 17.78° C | 53% | 1018.1 hPa | - | - | - | - |
| 1778036161 | 18.89° C | 52% | 1017.9 hPa | - | - | - | - |
| 1778035261 | 19.44° C | 49% | 1017.8 hPa | - | - | - | - |
| 1778034361 | 20° C | 48% | 1017.6 hPa | - | - | - | - |
| 1778033461 | 20.56° C | 48% | 1017.4 hPa | - | - | - | - |
| 1778032561 | 20.56° C | 47% | 1017.3 hPa | - | - | - | - |
| 1778030761 | 20° C | 47% | 1017.2 hPa | - | - | - | - |
| 1778029861 | 20.56° C | 45% | 1017.1 hPa | - | - | - | - |
| 1778028961 | 21.11° C | 44% | 1017.1 hPa | - | - | - | - |
| 1778028061 | 21.67° C | 42% | 1017 hPa | - | - | - | - |
| 1778027160 | 23.33° C | 42% | 1016.8 hPa | - | - | - | - |
| 1778026260 | 22.78° C | 42% | 1016.9 hPa | - | - | - | - |
| 1778019960 | 21.67° C | 42% | 1018.3 hPa | - | - | - | - |
| 1778019060 | 22.22° C | 41% | 1017.5 hPa | - | - | - | - |
| 1778017260 | 21.67° C | 42% | 1017.6 hPa | - | - | - | - |
| 1778011859 | 20° C | 47% | 1018 hPa | - | - | - | - |
| 1778010959 | 20.56° C | 47% | 1018 hPa | - | - | - | - |
| 1778009159 | 20° C | 48% | 1018.2 hPa | - | - | - | - |
* Rain since midnight (hover to see other rain measurements)
** Current wind speed in m/s (hover to see current wind gust speed)